sensor_id;sensor_type;location;lat;lon;timestamp;temperature;humidity
8778;DHT22;4425;50.872;4.712;2023-04-03T00:01:41;4.30;99.90
8778;DHT22;4425;50.872;4.712;2023-04-03T00:04:09;4.20;99.90
8778;DHT22;4425;50.872;4.712;2023-04-03T00:06:36;4.10;99.90
8778;DHT22;4425;50.872;4.712;2023-04-03T00:09:03;4.20;99.90
8778;DHT22;4425;50.872;4.712;2023-04-03T00:11:30;4.10;99.90
8778;DHT22;4425;50.872;4.712;2023-04-03T00:13:57;4.30;99.90
8778;DHT22;4425;50.872;4.712;2023-04-03T00:16:24;4.10;99.90
8778;DHT22;4425;50.872;4.712;2023-04-03T00:18:52;4.20;99.90
8778;DHT22;4425;50.872;4.712;2023-04-03T00:21:20;4.10;99.90
8778;DHT22;4425;50.872;4.712;2023-04-03T00:23:47;4.10;99.90
8778;DHT22;4425;50.872;4.712;2023-04-03T00:26:14;4.00;99.90
8778;DHT22;4425;50.872;4.712;2023-04-03T00:28:41;4.00;99.90
8778;DHT22;4425;50.872;4.712;2023-04-03T00:31:08;4.00;99.90
8778;DHT22;4425;50.872;4.712;2023-04-03T00:33:35;4.00;99.90
8778;DHT22;4425;50.872;4.712;2023-04-03T00:36:06;4.00;99.90
8778;DHT22;4425;50.872;4.712;2023-04-03T00:38:34;4.00;99.90
8778;DHT22;4425;50.872;4.712;2023-04-03T00:41:01;3.90;99.90
8778;DHT22;4425;50.872;4.712;2023-04-03T00:43:28;3.90;99.90
8778;DHT22;4425;50.872;4.712;2023-04-03T00:45:56;3.80;99.90
8778;DHT22;4425;50.872;4.712;2023-04-03T00:48:25;3.90;99.90
8778;DHT22;4425;50.872;4.712;2023-04-03T00:50:53;3.80;99.90
8778;DHT22;4425;50.872;4.712;2023-04-03T00:53:23;3.90;99.90
8778;DHT22;4425;50.872;4.712;2023-04-03T00:55:56;3.90;99.90
8778;DHT22;4425;50.872;4.712;2023-04-03T00:58:28;3.80;99.90
8778;DHT22;4425;50.872;4.712;2023-04-03T01:00:58;3.70;99.90
8778;DHT22;4425;50.872;4.712;2023-04-03T01:03:26;3.70;99.90
8778;DHT22;4425;50.872;4.712;2023-04-03T01:05:53;3.70;99.90
8778;DHT22;4425;50.872;4.712;2023-04-03T01:08:20;3.70;99.90
8778;DHT22;4425;50.872;4.712;2023-04-03T01:10:47;3.70;99.90
8778;DHT22;4425;50.872;4.712;2023-04-03T01:13:21;3.60;99.90
8778;DHT22;4425;50.872;4.712;2023-04-03T01:15:49;3.60;99.90
8778;DHT22;4425;50.872;4.712;2023-04-03T01:18:16;3.60;99.90
8778;DHT22;4425;50.872;4.712;2023-04-03T01:21:10;3.50;99.90
8778;DHT22;4425;50.872;4.712;2023-04-03T01:23:51;3.50;99.90
8778;DHT22;4425;50.872;4.712;2023-04-03T01:26:20;3.50;99.90
8778;DHT22;4425;50.872;4.712;2023-04-03T01:28:48;3.40;99.90
8778;DHT22;4425;50.872;4.712;2023-04-03T01:31:22;3.70;99.90
8778;DHT22;4425;50.872;4.712;2023-04-03T01:33:53;3.40;99.90
8778;DHT22;4425;50.872;4.712;2023-04-03T01:36:22;3.80;99.90
8778;DHT22;4425;50.872;4.712;2023-04-03T01:38:50;3.30;99.90
8778;DHT22;4425;50.872;4.712;2023-04-03T01:41:17;3.50;99.90
8778;DHT22;4425;50.872;4.712;2023-04-03T01:43:46;3.30;99.90
8778;DHT22;4425;50.872;4.712;2023-04-03T01:46:13;3.40;99.90
8778;DHT22;4425;50.872;4.712;2023-04-03T01:48:40;3.30;99.90
8778;DHT22;4425;50.872;4.712;2023-04-03T01:51:09;3.20;99.90
8778;DHT22;4425;50.872;4.712;2023-04-03T01:53:36;3.50;99.90
8778;DHT22;4425;50.872;4.712;2023-04-03T01:56:04;3.50;99.90
8778;DHT22;4425;50.872;4.712;2023-04-03T01:58:31;3.20;99.90
8778;DHT22;4425;50.872;4.712;2023-04-03T02:00:58;3.20;99.90
8778;DHT22;4425;50.872;4.712;2023-04-03T02:03:25;3.20;99.90
8778;DHT22;4425;50.872;4.712;2023-04-03T02:05:52;3.20;99.90
8778;DHT22;4425;50.872;4.712;2023-04-03T02:08:21;3.30;99.90
8778;DHT22;4425;50.872;4.712;2023-04-03T02:10:49;3.20;99.90
8778;DHT22;4425;50.872;4.712;2023-04-03T02:13:16;3.20;99.90
8778;DHT22;4425;50.872;4.712;2023-04-03T02:15:43;3.20;99.90
8778;DHT22;4425;50.872;4.712;2023-04-03T02:18:11;3.10;99.90
8778;DHT22;4425;50.872;4.712;2023-04-03T02:20:38;3.10;99.90
8778;DHT22;4425;50.872;4.712;2023-04-03T02:23:07;3.10;99.90
8778;DHT22;4425;50.872;4.712;2023-04-03T02:25:35;3.10;99.90
8778;DHT22;4425;50.872;4.712;2023-04-03T02:28:02;3.10;99.90
8778;DHT22;4425;50.872;4.712;2023-04-03T02:30:29;3.10;99.90
8778;DHT22;4425;50.872;4.712;2023-04-03T02:32:56;3.10;99.90
8778;DHT22;4425;50.872;4.712;2023-04-03T02:35:23;3.00;99.90
8778;DHT22;4425;50.872;4.712;2023-04-03T02:37:50;3.20;99.90
8778;DHT22;4425;50.872;4.712;2023-04-03T02:40:17;3.00;99.90
8778;DHT22;4425;50.872;4.712;2023-04-03T02:42:46;3.00;99.90
8778;DHT22;4425;50.872;4.712;2023-04-03T02:45:14;2.90;99.90
8778;DHT22;4425;50.872;4.712;2023-04-03T02:47:40;3.00;99.90
8778;DHT22;4425;50.872;4.712;2023-04-03T02:50:08;2.90;99.90
8778;DHT22;4425;50.872;4.712;2023-04-03T02:52:35;2.90;99.90
8778;DHT22;4425;50.872;4.712;2023-04-03T02:55:02;2.90;99.90
8778;DHT22;4425;50.872;4.712;2023-04-03T02:57:29;2.90;99.90
8778;DHT22;4425;50.872;4.712;2023-04-03T02:59:58;2.90;99.90
8778;DHT22;4425;50.872;4.712;2023-04-03T03:02:25;2.80;99.90
8778;DHT22;4425;50.872;4.712;2023-04-03T03:04:52;2.90;99.90
8778;DHT22;4425;50.872;4.712;2023-04-03T03:07:18;2.80;99.90
8778;DHT22;4425;50.872;4.712;2023-04-03T03:09:45;3.60;99.90
8778;DHT22;4425;50.872;4.712;2023-04-03T03:12:12;2.80;99.90
8778;DHT22;4425;50.872;4.712;2023-04-03T03:14:39;2.80;99.90
8778;DHT22;4425;50.872;4.712;2023-04-03T03:17:09;2.80;99.90
8778;DHT22;4425;50.872;4.712;2023-04-03T03:19:36;3.10;99.90
8778;DHT22;4425;50.872;4.712;2023-04-03T03:22:03;2.80;99.90
8778;DHT22;4425;50.872;4.712;2023-04-03T03:24:30;2.80;99.90
8778;DHT22;4425;50.872;4.712;2023-04-03T03:26:57;2.90;99.90
8778;DHT22;4425;50.872;4.712;2023-04-03T03:29:24;2.70;99.90
8778;DHT22;4425;50.872;4.712;2023-04-03T03:31:51;2.70;99.90
8778;DHT22;4425;50.872;4.712;2023-04-03T03:34:19;2.90;99.90
8778;DHT22;4425;50.872;4.712;2023-04-03T03:36:47;2.80;99.90
8778;DHT22;4425;50.872;4.712;2023-04-03T03:39:14;3.50;99.90
8778;DHT22;4425;50.872;4.712;2023-04-03T03:41:41;2.60;99.90
8778;DHT22;4425;50.872;4.712;2023-04-03T03:44:08;2.80;99.90
8778;DHT22;4425;50.872;4.712;2023-04-03T03:46:35;2.60;99.90
8778;DHT22;4425;50.872;4.712;2023-04-03T03:49:02;3.00;99.90
8778;DHT22;4425;50.872;4.712;2023-04-03T03:51:30;2.60;99.90
8778;DHT22;4425;50.872;4.712;2023-04-03T03:53:58;2.70;99.90
8778;DHT22;4425;50.872;4.712;2023-04-03T03:56:25;2.60;99.90
8778;DHT22;4425;50.872;4.712;2023-04-03T03:58:52;2.50;99.90
8778;DHT22;4425;50.872;4.712;2023-04-03T04:01:18;2.40;99.90
8778;DHT22;4425;50.872;4.712;2023-04-03T04:03:46;2.60;99.90
8778;DHT22;4425;50.872;4.712;2023-04-03T04:06:13;3.30;99.90
8778;DHT22;4425;50.872;4.712;2023-04-03T04:08:41;2.50;99.90
8778;DHT22;4425;50.872;4.712;2023-04-03T04:11:09;2.50;99.90
8778;DHT22;4425;50.872;4.712;2023-04-03T04:13:36;2.50;99.90
8778;DHT22;4425;50.872;4.712;2023-04-03T04:16:03;2.60;99.90
8778;DHT22;4425;50.872;4.712;2023-04-03T04:18:30;2.50;99.90
8778;DHT22;4425;50.872;4.712;2023-04-03T04:20:57;2.60;99.90
8778;DHT22;4425;50.872;4.712;2023-04-03T04:23:24;2.40;99.90
8778;DHT22;4425;50.872;4.712;2023-04-03T04:25:52;2.40;99.90
8778;DHT22;4425;50.872;4.712;2023-04-03T04:28:19;2.40;99.90
8778;DHT22;4425;50.872;4.712;2023-04-03T04:30:46;2.40;99.90
8778;DHT22;4425;50.872;4.712;2023-04-03T04:33:13;2.40;99.90
8778;DHT22;4425;50.872;4.712;2023-04-03T04:35:42;2.60;99.90
8778;DHT22;4425;50.872;4.712;2023-04-03T04:38:09;2.40;99.90
8778;DHT22;4425;50.872;4.712;2023-04-03T04:40:36;2.40;99.90
8778;DHT22;4425;50.872;4.712;2023-04-03T04:43:04;2.40;99.90
8778;DHT22;4425;50.872;4.712;2023-04-03T04:45:32;2.40;99.90
8778;DHT22;4425;50.872;4.712;2023-04-03T04:47:59;2.50;99.90
8778;DHT22;4425;50.872;4.712;2023-04-03T04:50:26;2.40;99.90
8778;DHT22;4425;50.872;4.712;2023-04-03T04:52:52;2.40;99.90
8778;DHT22;4425;50.872;4.712;2023-04-03T04:55:20;2.40;99.90
8778;DHT22;4425;50.872;4.712;2023-04-03T04:57:46;2.30;99.90
8778;DHT22;4425;50.872;4.712;2023-04-03T05:00:17;2.30;99.90
8778;DHT22;4425;50.872;4.712;2023-04-03T05:02:45;2.30;99.90
8778;DHT22;4425;50.872;4.712;2023-04-03T05:05:12;2.60;99.90
8778;DHT22;4425;50.872;4.712;2023-04-03T05:07:39;2.20;99.90
8778;DHT22;4425;50.872;4.712;2023-04-03T05:10:08;2.20;99.90
8778;DHT22;4425;50.872;4.712;2023-04-03T05:12:35;2.20;99.90
8778;DHT22;4425;50.872;4.712;2023-04-03T05:15:02;2.20;99.90
8778;DHT22;4425;50.872;4.712;2023-04-03T05:17:31;2.20;99.90
8778;DHT22;4425;50.872;4.712;2023-04-03T05:19:58;2.20;99.90
8778;DHT22;4425;50.872;4.712;2023-04-03T05:22:25;2.40;99.90
8778;DHT22;4425;50.872;4.712;2023-04-03T05:24:51;2.20;99.90
8778;DHT22;4425;50.872;4.712;2023-04-03T05:27:18;2.30;99.90
8778;DHT22;4425;50.872;4.712;2023-04-03T05:29:45;2.20;99.90
8778;DHT22;4425;50.872;4.712;2023-04-03T05:32:12;2.30;99.90
8778;DHT22;4425;50.872;4.712;2023-04-03T05:34:40;2.30;99.90
8778;DHT22;4425;50.872;4.712;2023-04-03T05:37:07;2.40;99.90
8778;DHT22;4425;50.872;4.712;2023-04-03T05:39:34;2.20;99.90
8778;DHT22;4425;50.872;4.712;2023-04-03T05:42:02;2.20;99.90
8778;DHT22;4425;50.872;4.712;2023-04-03T05:44:28;2.30;99.90
8778;DHT22;4425;50.872;4.712;2023-04-03T05:46:55;2.50;99.90
8778;DHT22;4425;50.872;4.712;2023-04-03T05:49:22;2.30;99.90
8778;DHT22;4425;50.872;4.712;2023-04-03T05:51:50;2.30;99.90
8778;DHT22;4425;50.872;4.712;2023-04-03T05:54:20;2.30;99.90
8778;DHT22;4425;50.872;4.712;2023-04-03T05:56:49;2.30;99.90
8778;DHT22;4425;50.872;4.712;2023-04-03T05:59:16;2.50;99.90
8778;DHT22;4425;50.872;4.712;2023-04-03T06:01:43;2.30;99.90
8778;DHT22;4425;50.872;4.712;2023-04-03T06:04:11;2.30;99.90
8778;DHT22;4425;50.872;4.712;2023-04-03T06:06:46;2.30;99.90
8778;DHT22;4425;50.872;4.712;2023-04-03T06:09:16;2.40;99.90
8778;DHT22;4425;50.872;4.712;2023-04-03T06:11:43;2.40;99.90
8778;DHT22;4425;50.872;4.712;2023-04-03T06:14:10;2.40;99.90
8778;DHT22;4425;50.872;4.712;2023-04-03T06:16:38;2.40;99.90
8778;DHT22;4425;50.872;4.712;2023-04-03T06:19:06;2.40;99.90
8778;DHT22;4425;50.872;4.712;2023-04-03T06:21:33;2.50;99.90
8778;DHT22;4425;50.872;4.712;2023-04-03T06:24:01;2.50;99.90
8778;DHT22;4425;50.872;4.712;2023-04-03T06:26:29;2.50;99.90
8778;DHT22;4425;50.872;4.712;2023-04-03T06:28:57;2.90;99.90
8778;DHT22;4425;50.872;4.712;2023-04-03T06:31:24;2.60;99.90
8778;DHT22;4425;50.872;4.712;2023-04-03T06:33:51;2.60;99.90
8778;DHT22;4425;50.872;4.712;2023-04-03T06:36:19;2.70;99.90
8778;DHT22;4425;50.872;4.712;2023-04-03T06:38:47;2.70;99.90
8778;DHT22;4425;50.872;4.712;2023-04-03T06:41:14;2.80;99.90
8778;DHT22;4425;50.872;4.712;2023-04-03T06:43:43;2.90;99.90
8778;DHT22;4425;50.872;4.712;2023-04-03T06:46:14;3.30;99.90
8778;DHT22;4425;50.872;4.712;2023-04-03T06:48:42;3.40;99.90
8778;DHT22;4425;50.872;4.712;2023-04-03T06:51:16;3.80;99.90
8778;DHT22;4425;50.872;4.712;2023-04-03T06:53:44;5.30;99.90
8778;DHT22;4425;50.872;4.712;2023-04-03T06:56:12;7.00;99.90
8778;DHT22;4425;50.872;4.712;2023-04-03T06:58:43;7.80;99.90
8778;DHT22;4425;50.872;4.712;2023-04-03T07:01:12;8.70;99.90
8778;DHT22;4425;50.872;4.712;2023-04-03T07:03:39;9.80;99.90
8778;DHT22;4425;50.872;4.712;2023-04-03T07:06:08;10.30;99.90
8778;DHT22;4425;50.872;4.712;2023-04-03T07:08:36;11.40;99.90
8778;DHT22;4425;50.872;4.712;2023-04-03T07:11:03;12.60;99.90
8778;DHT22;4425;50.872;4.712;2023-04-03T07:13:30;13.70;99.90
8778;DHT22;4425;50.872;4.712;2023-04-03T07:15:59;13.40;99.90
8778;DHT22;4425;50.872;4.712;2023-04-03T07:18:26;13.40;99.90
8778;DHT22;4425;50.872;4.712;2023-04-03T07:20:54;13.70;99.90
8778;DHT22;4425;50.872;4.712;2023-04-03T07:23:22;13.70;99.90
8778;DHT22;4425;50.872;4.712;2023-04-03T07:25:50;13.60;99.90
8778;DHT22;4425;50.872;4.712;2023-04-03T07:28:19;13.50;99.90
8778;DHT22;4425;50.872;4.712;2023-04-03T07:30:48;14.30;99.90
8778;DHT22;4425;50.872;4.712;2023-04-03T07:33:18;14.30;99.90
8778;DHT22;4425;50.872;4.712;2023-04-03T07:35:46;14.60;99.90
8778;DHT22;4425;50.872;4.712;2023-04-03T07:38:13;14.40;99.90
8778;DHT22;4425;50.872;4.712;2023-04-03T07:40:45;14.80;99.70
8778;DHT22;4425;50.872;4.712;2023-04-03T07:43:13;15.70;98.90
8778;DHT22;4425;50.872;4.712;2023-04-03T07:45:41;14.60;99.20
8778;DHT22;4425;50.872;4.712;2023-04-03T07:48:08;14.10;99.90
8778;DHT22;4425;50.872;4.712;2023-04-03T07:50:39;13.80;99.90
8778;DHT22;4425;50.872;4.712;2023-04-03T07:53:07;14.90;99.90
8778;DHT22;4425;50.872;4.712;2023-04-03T07:55:34;15.60;98.40
8778;DHT22;4425;50.872;4.712;2023-04-03T07:58:08;16.40;97.40
8778;DHT22;4425;50.872;4.712;2023-04-03T08:00:36;16.40;96.50
8778;DHT22;4425;50.872;4.712;2023-04-03T08:03:04;15.30;97.20
8778;DHT22;4425;50.872;4.712;2023-04-03T08:05:31;14.60;98.80
8778;DHT22;4425;50.872;4.712;2023-04-03T08:07:59;14.00;99.60
8778;DHT22;4425;50.872;4.712;2023-04-03T08:10:27;14.10;99.00
8778;DHT22;4425;50.872;4.712;2023-04-03T08:12:56;14.60;99.10
8778;DHT22;4425;50.872;4.712;2023-04-03T08:15:23;15.90;97.30
8778;DHT22;4425;50.872;4.712;2023-04-03T08:17:50;16.10;97.10
8778;DHT22;4425;50.872;4.712;2023-04-03T08:20:17;16.50;96.60
8778;DHT22;4425;50.872;4.712;2023-04-03T08:22:45;17.10;96.00
8778;DHT22;4425;50.872;4.712;2023-04-03T08:25:14;17.40;95.20
8778;DHT22;4425;50.872;4.712;2023-04-03T08:27:41;16.50;95.30
8778;DHT22;4425;50.872;4.712;2023-04-03T08:30:09;16.60;95.60
8778;DHT22;4425;50.872;4.712;2023-04-03T08:32:36;14.10;97.40
8778;DHT22;4425;50.872;4.712;2023-04-03T08:35:03;14.20;98.50
8778;DHT22;4425;50.872;4.712;2023-04-03T08:37:30;14.90;98.70
8778;DHT22;4425;50.872;4.712;2023-04-03T08:39:58;15.90;96.40
8778;DHT22;4425;50.872;4.712;2023-04-03T08:42:37;16.90;95.70
8778;DHT22;4425;50.872;4.712;2023-04-03T08:45:12;16.60;95.40
8778;DHT22;4425;50.872;4.712;2023-04-03T08:47:44;16.20;95.20
8778;DHT22;4425;50.872;4.712;2023-04-03T08:50:16;15.10;95.50
8778;DHT22;4425;50.872;4.712;2023-04-03T08:52:46;14.30;96.80
8778;DHT22;4425;50.872;4.712;2023-04-03T08:55:22;10.90;99.90
8778;DHT22;4425;50.872;4.712;2023-04-03T08:57:53;10.00;99.90
8778;DHT22;4425;50.872;4.712;2023-04-03T09:00:25;9.00;99.90
8778;DHT22;4425;50.872;4.712;2023-04-03T09:02:55;8.60;99.90
8778;DHT22;4425;50.872;4.712;2023-04-03T09:05:32;8.50;99.90
8778;DHT22;4425;50.872;4.712;2023-04-03T09:08:11;8.30;99.90
8778;DHT22;4425;50.872;4.712;2023-04-03T09:10:40;8.40;99.90
8778;DHT22;4425;50.872;4.712;2023-04-03T09:13:17;8.40;99.90
8778;DHT22;4425;50.872;4.712;2023-04-03T09:15:47;8.40;99.90
8778;DHT22;4425;50.872;4.712;2023-04-03T09:18:18;8.40;99.90
8778;DHT22;4425;50.872;4.712;2023-04-03T09:20:53;8.50;99.90
8778;DHT22;4425;50.872;4.712;2023-04-03T09:23:29;8.40;99.90
8778;DHT22;4425;50.872;4.712;2023-04-03T09:26:09;8.20;99.90
8778;DHT22;4425;50.872;4.712;2023-04-03T09:28:40;8.30;99.90
8778;DHT22;4425;50.872;4.712;2023-04-03T09:31:16;8.40;99.90
8778;DHT22;4425;50.872;4.712;2023-04-03T09:33:45;8.40;99.90
8778;DHT22;4425;50.872;4.712;2023-04-03T09:36:13;8.30;99.90
8778;DHT22;4425;50.872;4.712;2023-04-03T09:38:40;8.50;99.90
8778;DHT22;4425;50.872;4.712;2023-04-03T09:41:15;8.40;99.90
8778;DHT22;4425;50.872;4.712;2023-04-03T09:43:52;8.30;99.90
8778;DHT22;4425;50.872;4.712;2023-04-03T09:46:29;8.60;99.90
8778;DHT22;4425;50.872;4.712;2023-04-03T09:49:00;8.50;99.90
8778;DHT22;4425;50.872;4.712;2023-04-03T09:51:27;8.50;99.90
8778;DHT22;4425;50.872;4.712;2023-04-03T09:53:55;8.50;99.90
8778;DHT22;4425;50.872;4.712;2023-04-03T09:56:25;8.50;99.90
8778;DHT22;4425;50.872;4.712;2023-04-03T09:59:08;8.40;99.90
8778;DHT22;4425;50.872;4.712;2023-04-03T10:01:43;8.40;99.90
8778;DHT22;4425;50.872;4.712;2023-04-03T10:04:14;8.60;99.90
8778;DHT22;4425;50.872;4.712;2023-04-03T10:06:42;8.70;99.90
8778;DHT22;4425;50.872;4.712;2023-04-03T10:09:19;8.80;99.90
8778;DHT22;4425;50.872;4.712;2023-04-03T10:12:01;8.90;99.90
8778;DHT22;4425;50.872;4.712;2023-04-03T10:14:32;8.70;99.90
8778;DHT22;4425;50.872;4.712;2023-04-03T10:17:05;8.60;99.90
8778;DHT22;4425;50.872;4.712;2023-04-03T10:19:40;8.80;99.90
8778;DHT22;4425;50.872;4.712;2023-04-03T10:22:28;8.80;99.90
8778;DHT22;4425;50.872;4.712;2023-04-03T10:25:11;8.70;99.90
8778;DHT22;4425;50.872;4.712;2023-04-03T10:27:49;8.60;99.90
8778;DHT22;4425;50.872;4.712;2023-04-03T10:30:36;8.60;99.90
8778;DHT22;4425;50.872;4.712;2023-04-03T10:33:23;8.60;99.90
8778;DHT22;4425;50.872;4.712;2023-04-03T10:36:05;8.80;99.90
8778;DHT22;4425;50.872;4.712;2023-04-03T10:38:42;8.90;99.90
8778;DHT22;4425;50.872;4.712;2023-04-03T10:41:15;9.00;99.90
8778;DHT22;4425;50.872;4.712;2023-04-03T10:43:48;9.10;99.90
8778;DHT22;4425;50.872;4.712;2023-04-03T10:46:24;9.40;99.90
8778;DHT22;4425;50.872;4.712;2023-04-03T10:49:19;9.40;99.90
8778;DHT22;4425;50.872;4.712;2023-04-03T10:51:51;9.10;99.90
8778;DHT22;4425;50.872;4.712;2023-04-03T10:54:25;9.10;99.90
8778;DHT22;4425;50.872;4.712;2023-04-03T10:56:56;9.30;99.90
8778;DHT22;4425;50.872;4.712;2023-04-03T10:59:31;9.50;99.90
8778;DHT22;4425;50.872;4.712;2023-04-03T11:02:04;9.50;99.60
8778;DHT22;4425;50.872;4.712;2023-04-03T11:04:36;9.50;99.60
8778;DHT22;4425;50.872;4.712;2023-04-03T11:07:10;9.70;99.90
8778;DHT22;4425;50.872;4.712;2023-04-03T11:09:40;9.70;99.90
8778;DHT22;4425;50.872;4.712;2023-04-03T11:12:13;9.60;99.90
8778;DHT22;4425;50.872;4.712;2023-04-03T11:14:41;9.70;99.90
8778;DHT22;4425;50.872;4.712;2023-04-03T11:17:23;9.90;99.90
8778;DHT22;4425;50.872;4.712;2023-04-03T11:20:01;9.90;99.90
8778;DHT22;4425;50.872;4.712;2023-04-03T11:22:33;9.80;97.60
8778;DHT22;4425;50.872;4.712;2023-04-03T11:25:05;9.60;96.20
8778;DHT22;4425;50.872;4.712;2023-04-03T11:27:37;9.50;97.00
8778;DHT22;4425;50.872;4.712;2023-04-03T11:30:12;9.40;96.00
8778;DHT22;4425;50.872;4.712;2023-04-03T11:32:58;9.40;95.20
8778;DHT22;4425;50.872;4.712;2023-04-03T11:35:28;9.40;95.20
8778;DHT22;4425;50.872;4.712;2023-04-03T11:37:59;9.30;95.70
8778;DHT22;4425;50.872;4.712;2023-04-03T11:40:30;9.40;95.70
8778;DHT22;4425;50.872;4.712;2023-04-03T11:43:05;9.60;95.20
8778;DHT22;4425;50.872;4.712;2023-04-03T11:45:36;9.70;95.60
8778;DHT22;4425;50.872;4.712;2023-04-03T11:51:52;9.80;95.90
8778;DHT22;4425;50.872;4.712;2023-04-03T11:54:47;10.00;95.80
8778;DHT22;4425;50.872;4.712;2023-04-03T11:57:44;10.20;95.00
8778;DHT22;4425;50.872;4.712;2023-04-03T12:00:47;10.10;95.30
8778;DHT22;4425;50.872;4.712;2023-04-03T12:07:13;10.30;93.20
8778;DHT22;4425;50.872;4.712;2023-04-03T12:10:00;10.30;92.90
8778;DHT22;4425;50.872;4.712;2023-04-03T12:12:37;10.20;92.90
8778;DHT22;4425;50.872;4.712;2023-04-03T12:15:24;10.20;93.60
8778;DHT22;4425;50.872;4.712;2023-04-03T12:17:52;10.40;93.10
8778;DHT22;4425;50.872;4.712;2023-04-03T12:20:46;10.60;92.40
8778;DHT22;4425;50.872;4.712;2023-04-03T12:23:30;10.50;91.70
8778;DHT22;4425;50.872;4.712;2023-04-03T12:26:04;10.50;91.90
8778;DHT22;4425;50.872;4.712;2023-04-03T12:28:39;10.50;91.00
8778;DHT22;4425;50.872;4.712;2023-04-03T12:31:10;10.60;91.60
8778;DHT22;4425;50.872;4.712;2023-04-03T12:33:58;10.50;91.40
8778;DHT22;4425;50.872;4.712;2023-04-03T12:36:33;10.40;91.40
8778;DHT22;4425;50.872;4.712;2023-04-03T12:39:43;10.60;90.40
8778;DHT22;4425;50.872;4.712;2023-04-03T12:42:25;10.70;89.70
8778;DHT22;4425;50.872;4.712;2023-04-03T12:45:03;10.80;90.20
8778;DHT22;4425;50.872;4.712;2023-04-03T12:47:37;10.70;90.50
8778;DHT22;4425;50.872;4.712;2023-04-03T12:50:17;10.50;89.50
8778;DHT22;4425;50.872;4.712;2023-04-03T12:52:51;10.50;88.80
8778;DHT22;4425;50.872;4.712;2023-04-03T12:55:21;10.70;90.20
8778;DHT22;4425;50.872;4.712;2023-04-03T12:57:48;10.70;90.40
8778;DHT22;4425;50.872;4.712;2023-04-03T13:00:28;10.70;90.80
8778;DHT22;4425;50.872;4.712;2023-04-03T13:02:55;10.90;90.70
8778;DHT22;4425;50.872;4.712;2023-04-03T13:05:24;11.00;90.80
8778;DHT22;4425;50.872;4.712;2023-04-03T13:07:55;11.00;90.90
8778;DHT22;4425;50.872;4.712;2023-04-03T13:10:25;10.80;91.60
8778;DHT22;4425;50.872;4.712;2023-04-03T13:12:55;10.80;92.20
8778;DHT22;4425;50.872;4.712;2023-04-03T13:15:26;10.90;92.10
8778;DHT22;4425;50.872;4.712;2023-04-03T13:17:54;10.90;92.10
8778;DHT22;4425;50.872;4.712;2023-04-03T13:20:25;11.00;91.40
8778;DHT22;4425;50.872;4.712;2023-04-03T13:22:56;11.10;91.60
8778;DHT22;4425;50.872;4.712;2023-04-03T13:25:32;11.00;91.30
8778;DHT22;4425;50.872;4.712;2023-04-03T13:28:00;11.10;91.40
8778;DHT22;4425;50.872;4.712;2023-04-03T13:30:30;11.30;91.70
8778;DHT22;4425;50.872;4.712;2023-04-03T13:32:59;11.30;92.30
8778;DHT22;4425;50.872;4.712;2023-04-03T13:35:34;11.10;92.10
8778;DHT22;4425;50.872;4.712;2023-04-03T13:38:06;11.30;92.40
8778;DHT22;4425;50.872;4.712;2023-04-03T13:40:47;11.30;90.40
8778;DHT22;4425;50.872;4.712;2023-04-03T13:43:20;11.30;89.30
8778;DHT22;4425;50.872;4.712;2023-04-03T13:45:55;11.20;89.50
8778;DHT22;4425;50.872;4.712;2023-04-03T13:48:22;11.20;89.00
8778;DHT22;4425;50.872;4.712;2023-04-03T13:50:54;11.30;88.20
8778;DHT22;4425;50.872;4.712;2023-04-03T13:53:22;11.10;88.50
8778;DHT22;4425;50.872;4.712;2023-04-03T13:56:06;11.20;89.20
8778;DHT22;4425;50.872;4.712;2023-04-03T13:58:34;10.60;88.80
8778;DHT22;4425;50.872;4.712;2023-04-03T14:01:10;10.90;90.40
8778;DHT22;4425;50.872;4.712;2023-04-03T14:03:42;11.10;90.00
8778;DHT22;4425;50.872;4.712;2023-04-03T14:06:12;11.10;87.70
8778;DHT22;4425;50.872;4.712;2023-04-03T14:08:39;11.30;89.50
8778;DHT22;4425;50.872;4.712;2023-04-03T14:11:13;11.30;89.50
8778;DHT22;4425;50.872;4.712;2023-04-03T14:13:42;11.40;89.50
8778;DHT22;4425;50.872;4.712;2023-04-03T14:16:13;11.50;89.70
8778;DHT22;4425;50.872;4.712;2023-04-03T14:18:42;11.40;89.00
8778;DHT22;4425;50.872;4.712;2023-04-03T14:21:11;11.50;87.40
8778;DHT22;4425;50.872;4.712;2023-04-03T14:23:38;11.30;87.40
8778;DHT22;4425;50.872;4.712;2023-04-03T14:26:12;10.90;87.30
8778;DHT22;4425;50.872;4.712;2023-04-03T14:28:39;10.90;89.00
8778;DHT22;4425;50.872;4.712;2023-04-03T14:31:06;11.00;89.80
8778;DHT22;4425;50.872;4.712;2023-04-03T14:33:33;11.10;90.50
8778;DHT22;4425;50.872;4.712;2023-04-03T14:36:04;11.10;90.20
8778;DHT22;4425;50.872;4.712;2023-04-03T14:38:32;11.10;91.20
8778;DHT22;4425;50.872;4.712;2023-04-03T14:40:59;11.20;91.20
8778;DHT22;4425;50.872;4.712;2023-04-03T14:43:27;11.30;91.90
8778;DHT22;4425;50.872;4.712;2023-04-03T14:45:55;11.50;91.70
8778;DHT22;4425;50.872;4.712;2023-04-03T14:48:24;11.50;91.10
8778;DHT22;4425;50.872;4.712;2023-04-03T14:50:53;11.80;90.90
8778;DHT22;4425;50.872;4.712;2023-04-03T14:53:20;11.70;90.80
8778;DHT22;4425;50.872;4.712;2023-04-03T14:55:50;11.40;91.50
8778;DHT22;4425;50.872;4.712;2023-04-03T14:58:19;11.20;91.50
8778;DHT22;4425;50.872;4.712;2023-04-03T15:00:47;11.30;91.50
8778;DHT22;4425;50.872;4.712;2023-04-03T15:03:15;11.40;91.60
8778;DHT22;4425;50.872;4.712;2023-04-03T15:05:44;11.10;91.60
8778;DHT22;4425;50.872;4.712;2023-04-03T15:08:18;11.10;91.50
8778;DHT22;4425;50.872;4.712;2023-04-03T15:10:46;11.10;92.00
8778;DHT22;4425;50.872;4.712;2023-04-03T15:13:13;11.10;92.30
8778;DHT22;4425;50.872;4.712;2023-04-03T15:15:41;11.30;92.20
8778;DHT22;4425;50.872;4.712;2023-04-03T15:18:15;11.50;92.00
8778;DHT22;4425;50.872;4.712;2023-04-03T15:20:43;11.40;92.10
8778;DHT22;4425;50.872;4.712;2023-04-03T15:23:12;11.40;92.30
8778;DHT22;4425;50.872;4.712;2023-04-03T15:25:39;11.50;91.80
8778;DHT22;4425;50.872;4.712;2023-04-03T15:28:08;11.60;91.90
8778;DHT22;4425;50.872;4.712;2023-04-03T15:30:39;11.60;92.20
8778;DHT22;4425;50.872;4.712;2023-04-03T15:33:06;11.60;92.70
8778;DHT22;4425;50.872;4.712;2023-04-03T15:35:34;11.80;92.90
8778;DHT22;4425;50.872;4.712;2023-04-03T15:38:01;11.60;92.20
8778;DHT22;4425;50.872;4.712;2023-04-03T15:40:28;11.60;92.20
8778;DHT22;4425;50.872;4.712;2023-04-03T15:42:55;11.50;92.50
8778;DHT22;4425;50.872;4.712;2023-04-03T15:45:22;11.40;92.70
8778;DHT22;4425;50.872;4.712;2023-04-03T15:47:52;11.30;92.80
8778;DHT22;4425;50.872;4.712;2023-04-03T15:50:20;11.40;92.80
8778;DHT22;4425;50.872;4.712;2023-04-03T15:52:50;11.10;93.10
8778;DHT22;4425;50.872;4.712;2023-04-03T15:55:20;11.10;93.40
8778;DHT22;4425;50.872;4.712;2023-04-03T15:57:47;11.10;93.70
8778;DHT22;4425;50.872;4.712;2023-04-03T16:00:14;11.10;94.10
8778;DHT22;4425;50.872;4.712;2023-04-03T16:02:42;11.10;93.50
8778;DHT22;4425;50.872;4.712;2023-04-03T16:05:10;11.10;93.60
8778;DHT22;4425;50.872;4.712;2023-04-03T16:07:39;11.30;93.60
8778;DHT22;4425;50.872;4.712;2023-04-03T16:10:09;11.00;93.60
8778;DHT22;4425;50.872;4.712;2023-04-03T16:12:37;10.90;94.10
8778;DHT22;4425;50.872;4.712;2023-04-03T16:15:05;11.00;93.60
8778;DHT22;4425;50.872;4.712;2023-04-03T16:17:32;10.90;93.70
8778;DHT22;4425;50.872;4.712;2023-04-03T16:20:01;10.70;93.70
8778;DHT22;4425;50.872;4.712;2023-04-03T16:22:29;10.80;94.40
8778;DHT22;4425;50.872;4.712;2023-04-03T16:24:57;10.70;94.40
8778;DHT22;4425;50.872;4.712;2023-04-03T16:27:25;10.70;93.90
8778;DHT22;4425;50.872;4.712;2023-04-03T16:29:53;10.70;94.10
8778;DHT22;4425;50.872;4.712;2023-04-03T16:32:20;10.40;94.10
8778;DHT22;4425;50.872;4.712;2023-04-03T16:34:49;10.60;94.30
8778;DHT22;4425;50.872;4.712;2023-04-03T16:37:17;10.70;94.60
8778;DHT22;4425;50.872;4.712;2023-04-03T16:39:44;10.70;94.70